sensor_id;sensor_type;location;lat;lon;timestamp;P1;durP1;ratioP1;P2;durP2;ratioP2
8100;SDS011;4093;53.470;9.832;2023-10-31T00:01:30;7.97;;;5.77;;
8100;SDS011;4093;53.470;9.832;2023-10-31T00:03:57;7.70;;;6.67;;
8100;SDS011;4093;53.470;9.832;2023-10-31T00:06:25;9.30;;;7.00;;
8100;SDS011;4093;53.470;9.832;2023-10-31T00:08:53;7.37;;;6.60;;
8100;SDS011;4093;53.470;9.832;2023-10-31T00:11:21;7.30;;;6.33;;
8100;SDS011;4093;53.470;9.832;2023-10-31T00:13:49;8.37;;;6.83;;
8100;SDS011;4093;53.470;9.832;2023-10-31T00:16:17;8.20;;;6.20;;
8100;SDS011;4093;53.470;9.832;2023-10-31T00:18:46;10.70;;;7.13;;
8100;SDS011;4093;53.470;9.832;2023-10-31T00:21:13;9.83;;;7.77;;
8100;SDS011;4093;53.470;9.832;2023-10-31T00:23:45;8.40;;;7.47;;
8100;SDS011;4093;53.470;9.832;2023-10-31T00:26:14;8.23;;;7.13;;
8100;SDS011;4093;53.470;9.832;2023-10-31T00:28:42;7.70;;;6.90;;
8100;SDS011;4093;53.470;9.832;2023-10-31T00:31:10;9.23;;;7.47;;
8100;SDS011;4093;53.470;9.832;2023-10-31T00:33:37;7.83;;;7.03;;
8100;SDS011;4093;53.470;9.832;2023-10-31T00:36:07;10.17;;;7.30;;
8100;SDS011;4093;53.470;9.832;2023-10-31T00:38:35;8.73;;;6.97;;
8100;SDS011;4093;53.470;9.832;2023-10-31T00:41:03;10.27;;;6.60;;
8100;SDS011;4093;53.470;9.832;2023-10-31T00:43:31;9.47;;;6.60;;
8100;SDS011;4093;53.470;9.832;2023-10-31T00:45:58;7.57;;;6.13;;
8100;SDS011;4093;53.470;9.832;2023-10-31T00:48:26;8.10;;;5.10;;
8100;SDS011;4093;53.470;9.832;2023-10-31T00:50:54;6.93;;;5.53;;
8100;SDS011;4093;53.470;9.832;2023-10-31T00:53:23;7.40;;;5.93;;
8100;SDS011;4093;53.470;9.832;2023-10-31T00:55:51;10.07;;;5.70;;
8100;SDS011;4093;53.470;9.832;2023-10-31T00:58:19;8.93;;;6.17;;
8100;SDS011;4093;53.470;9.832;2023-10-31T01:00:46;5.90;;;5.30;;
8100;SDS011;4093;53.470;9.832;2023-10-31T01:03:14;8.17;;;5.90;;
8100;SDS011;4093;53.470;9.832;2023-10-31T01:05:42;6.20;;;5.37;;
8100;SDS011;4093;53.470;9.832;2023-10-31T01:08:10;7.67;;;5.50;;
8100;SDS011;4093;53.470;9.832;2023-10-31T01:10:40;8.13;;;5.77;;
8100;SDS011;4093;53.470;9.832;2023-10-31T01:13:08;6.93;;;5.60;;
8100;SDS011;4093;53.470;9.832;2023-10-31T01:15:35;5.60;;;5.00;;
8100;SDS011;4093;53.470;9.832;2023-10-31T01:18:03;7.53;;;5.10;;
8100;SDS011;4093;53.470;9.832;2023-10-31T01:20:32;9.17;;;5.67;;
8100;SDS011;4093;53.470;9.832;2023-10-31T01:22:59;9.63;;;5.63;;
8100;SDS011;4093;53.470;9.832;2023-10-31T01:25:27;7.83;;;4.60;;
8100;SDS011;4093;53.470;9.832;2023-10-31T01:27:56;6.13;;;5.23;;
8100;SDS011;4093;53.470;9.832;2023-10-31T01:30:24;6.77;;;4.63;;
8100;SDS011;4093;53.470;9.832;2023-10-31T01:32:52;6.57;;;5.00;;
8100;SDS011;4093;53.470;9.832;2023-10-31T01:35:20;6.17;;;4.30;;
8100;SDS011;4093;53.470;9.832;2023-10-31T01:37:48;5.40;;;4.73;;
8100;SDS011;4093;53.470;9.832;2023-10-31T01:40:16;6.70;;;4.40;;
8100;SDS011;4093;53.470;9.832;2023-10-31T01:42:44;5.47;;;3.90;;
8100;SDS011;4093;53.470;9.832;2023-10-31T01:45:13;6.50;;;4.80;;
8100;SDS011;4093;53.470;9.832;2023-10-31T01:47:41;5.10;;;4.20;;
8100;SDS011;4093;53.470;9.832;2023-10-31T01:50:12;5.37;;;3.97;;
8100;SDS011;4093;53.470;9.832;2023-10-31T01:52:40;5.70;;;4.07;;
8100;SDS011;4093;53.470;9.832;2023-10-31T01:55:09;4.67;;;4.00;;
8100;SDS011;4093;53.470;9.832;2023-10-31T01:57:38;6.70;;;4.47;;
8100;SDS011;4093;53.470;9.832;2023-10-31T02:00:06;5.37;;;4.77;;
8100;SDS011;4093;53.470;9.832;2023-10-31T02:02:36;7.97;;;4.10;;
8100;SDS011;4093;53.470;9.832;2023-10-31T02:05:07;7.50;;;4.70;;
8100;SDS011;4093;53.470;9.832;2023-10-31T02:07:36;6.43;;;4.37;;
8100;SDS011;4093;53.470;9.832;2023-10-31T02:10:05;6.23;;;4.70;;
8100;SDS011;4093;53.470;9.832;2023-10-31T02:12:33;5.80;;;4.33;;
8100;SDS011;4093;53.470;9.832;2023-10-31T02:15:02;5.93;;;4.70;;
8100;SDS011;4093;53.470;9.832;2023-10-31T02:17:31;5.60;;;4.73;;
8100;SDS011;4093;53.470;9.832;2023-10-31T02:20:00;6.63;;;4.80;;
8100;SDS011;4093;53.470;9.832;2023-10-31T02:22:29;7.27;;;4.50;;
8100;SDS011;4093;53.470;9.832;2023-10-31T02:24:57;7.87;;;4.90;;
8100;SDS011;4093;53.470;9.832;2023-10-31T02:27:25;6.20;;;4.80;;
8100;SDS011;4093;53.470;9.832;2023-10-31T02:29:53;8.07;;;4.30;;
8100;SDS011;4093;53.470;9.832;2023-10-31T02:32:21;7.13;;;5.00;;
8100;SDS011;4093;53.470;9.832;2023-10-31T02:34:49;6.93;;;4.83;;
8100;SDS011;4093;53.470;9.832;2023-10-31T02:37:17;8.73;;;6.27;;
8100;SDS011;4093;53.470;9.832;2023-10-31T02:39:46;7.40;;;5.43;;
8100;SDS011;4093;53.470;9.832;2023-10-31T02:42:14;10.67;;;6.13;;
8100;SDS011;4093;53.470;9.832;2023-10-31T02:44:41;8.20;;;6.03;;
8100;SDS011;4093;53.470;9.832;2023-10-31T02:47:09;9.67;;;5.80;;
8100;SDS011;4093;53.470;9.832;2023-10-31T02:49:37;7.03;;;6.00;;
8100;SDS011;4093;53.470;9.832;2023-10-31T02:52:05;9.40;;;6.00;;
8100;SDS011;4093;53.470;9.832;2023-10-31T02:54:32;8.77;;;6.03;;
8100;SDS011;4093;53.470;9.832;2023-10-31T02:57:02;9.50;;;6.30;;
8100;SDS011;4093;53.470;9.832;2023-10-31T02:59:30;8.87;;;6.37;;
8100;SDS011;4093;53.470;9.832;2023-10-31T03:01:58;8.90;;;6.40;;
8100;SDS011;4093;53.470;9.832;2023-10-31T03:04:25;10.87;;;6.63;;
8100;SDS011;4093;53.470;9.832;2023-10-31T03:06:53;8.73;;;7.23;;
8100;SDS011;4093;53.470;9.832;2023-10-31T03:09:21;9.03;;;6.87;;
8100;SDS011;4093;53.470;9.832;2023-10-31T03:11:48;10.53;;;7.57;;
8100;SDS011;4093;53.470;9.832;2023-10-31T03:14:18;13.27;;;7.47;;
8100;SDS011;4093;53.470;9.832;2023-10-31T03:16:45;10.30;;;7.70;;
8100;SDS011;4093;53.470;9.832;2023-10-31T03:19:13;9.90;;;8.10;;
8100;SDS011;4093;53.470;9.832;2023-10-31T03:21:41;8.90;;;7.33;;
8100;SDS011;4093;53.470;9.832;2023-10-31T03:24:09;14.03;;;8.77;;
8100;SDS011;4093;53.470;9.832;2023-10-31T03:26:36;10.20;;;8.33;;
8100;SDS011;4093;53.470;9.832;2023-10-31T03:29:04;11.20;;;8.47;;
8100;SDS011;4093;53.470;9.832;2023-10-31T03:31:33;10.23;;;9.03;;
8100;SDS011;4093;53.470;9.832;2023-10-31T03:34:01;14.87;;;9.97;;
8100;SDS011;4093;53.470;9.832;2023-10-31T03:36:29;13.07;;;10.90;;
8100;SDS011;4093;53.470;9.832;2023-10-31T03:38:57;16.50;;;10.37;;
8100;SDS011;4093;53.470;9.832;2023-10-31T03:41:24;15.97;;;10.67;;
8100;SDS011;4093;53.470;9.832;2023-10-31T03:43:52;14.30;;;10.67;;
8100;SDS011;4093;53.470;9.832;2023-10-31T03:46:20;12.27;;;10.97;;
8100;SDS011;4093;53.470;9.832;2023-10-31T03:48:49;15.53;;;10.80;;
8100;SDS011;4093;53.470;9.832;2023-10-31T03:51:17;12.37;;;10.43;;
8100;SDS011;4093;53.470;9.832;2023-10-31T03:53:45;13.63;;;10.83;;
8100;SDS011;4093;53.470;9.832;2023-10-31T03:56:12;14.20;;;11.00;;
8100;SDS011;4093;53.470;9.832;2023-10-31T03:58:40;14.87;;;10.73;;
8100;SDS011;4093;53.470;9.832;2023-10-31T04:01:08;16.03;;;11.73;;
8100;SDS011;4093;53.470;9.832;2023-10-31T04:03:36;14.57;;;11.00;;
8100;SDS011;4093;53.470;9.832;2023-10-31T04:06:06;15.63;;;11.40;;
8100;SDS011;4093;53.470;9.832;2023-10-31T04:08:34;14.70;;;11.13;;
8100;SDS011;4093;53.470;9.832;2023-10-31T04:11:01;16.53;;;12.30;;
8100;SDS011;4093;53.470;9.832;2023-10-31T04:13:30;16.57;;;11.20;;
8100;SDS011;4093;53.470;9.832;2023-10-31T04:15:57;12.37;;;10.63;;
8100;SDS011;4093;53.470;9.832;2023-10-31T04:18:25;14.50;;;11.40;;
8100;SDS011;4093;53.470;9.832;2023-10-31T04:20:53;14.33;;;12.07;;
8100;SDS011;4093;53.470;9.832;2023-10-31T04:23:22;16.53;;;11.77;;
8100;SDS011;4093;53.470;9.832;2023-10-31T04:25:50;16.30;;;12.20;;
8100;SDS011;4093;53.470;9.832;2023-10-31T04:28:18;17.43;;;12.43;;
8100;SDS011;4093;53.470;9.832;2023-10-31T04:30:46;14.87;;;11.50;;
8100;SDS011;4093;53.470;9.832;2023-10-31T04:33:14;16.43;;;12.53;;
8100;SDS011;4093;53.470;9.832;2023-10-31T04:35:42;14.93;;;12.77;;
8100;SDS011;4093;53.470;9.832;2023-10-31T04:38:10;13.30;;;11.37;;
8100;SDS011;4093;53.470;9.832;2023-10-31T04:40:39;12.93;;;11.17;;
8100;SDS011;4093;53.470;9.832;2023-10-31T04:43:07;15.80;;;12.10;;
8100;SDS011;4093;53.470;9.832;2023-10-31T04:45:35;15.43;;;13.33;;
8100;SDS011;4093;53.470;9.832;2023-10-31T04:48:02;15.23;;;11.20;;
8100;SDS011;4093;53.470;9.832;2023-10-31T04:50:30;17.30;;;11.93;;
8100;SDS011;4093;53.470;9.832;2023-10-31T04:52:58;15.33;;;13.43;;
8100;SDS011;4093;53.470;9.832;2023-10-31T04:55:26;15.73;;;12.10;;
8100;SDS011;4093;53.470;9.832;2023-10-31T04:57:55;13.07;;;11.07;;
8100;SDS011;4093;53.470;9.832;2023-10-31T05:00:23;13.60;;;11.53;;
8100;SDS011;4093;53.470;9.832;2023-10-31T05:02:51;16.57;;;13.00;;
8100;SDS011;4093;53.470;9.832;2023-10-31T05:05:19;16.27;;;11.97;;
8100;SDS011;4093;53.470;9.832;2023-10-31T05:07:47;15.60;;;13.07;;
8100;SDS011;4093;53.470;9.832;2023-10-31T05:10:15;16.53;;;13.30;;
8100;SDS011;4093;53.470;9.832;2023-10-31T05:12:42;15.97;;;11.77;;
8100;SDS011;4093;53.470;9.832;2023-10-31T05:15:12;16.07;;;13.30;;
8100;SDS011;4093;53.470;9.832;2023-10-31T05:17:39;21.37;;;13.67;;
8100;SDS011;4093;53.470;9.832;2023-10-31T05:20:08;19.00;;;13.63;;
8100;SDS011;4093;53.470;9.832;2023-10-31T05:22:36;18.50;;;13.63;;
8100;SDS011;4093;53.470;9.832;2023-10-31T05:25:04;18.87;;;13.77;;
8100;SDS011;4093;53.470;9.832;2023-10-31T05:27:32;16.80;;;13.70;;
8100;SDS011;4093;53.470;9.832;2023-10-31T05:30:00;19.10;;;14.07;;
8100;SDS011;4093;53.470;9.832;2023-10-31T05:32:29;19.50;;;14.43;;
8100;SDS011;4093;53.470;9.832;2023-10-31T05:34:57;16.07;;;12.13;;
8100;SDS011;4093;53.470;9.832;2023-10-31T05:37:26;16.73;;;12.47;;
8100;SDS011;4093;53.470;9.832;2023-10-31T05:39:53;23.83;;;15.50;;
8100;SDS011;4093;53.470;9.832;2023-10-31T05:42:22;19.00;;;14.23;;
8100;SDS011;4093;53.470;9.832;2023-10-31T05:44:50;23.30;;;16.70;;
8100;SDS011;4093;53.470;9.832;2023-10-31T05:47:18;25.77;;;16.50;;
8100;SDS011;4093;53.470;9.832;2023-10-31T05:49:47;23.63;;;16.17;;
8100;SDS011;4093;53.470;9.832;2023-10-31T05:52:15;23.83;;;16.47;;
8100;SDS011;4093;53.470;9.832;2023-10-31T05:54:43;24.00;;;15.47;;
8100;SDS011;4093;53.470;9.832;2023-10-31T05:57:10;22.37;;;15.13;;
8100;SDS011;4093;53.470;9.832;2023-10-31T05:59:38;19.00;;;13.60;;
8100;SDS011;4093;53.470;9.832;2023-10-31T06:02:06;15.93;;;12.30;;
8100;SDS011;4093;53.470;9.832;2023-10-31T06:04:34;18.07;;;12.13;;
8100;SDS011;4093;53.470;9.832;2023-10-31T06:07:03;15.40;;;11.20;;
8100;SDS011;4093;53.470;9.832;2023-10-31T06:09:31;14.63;;;10.40;;
8100;SDS011;4093;53.470;9.832;2023-10-31T06:11:59;14.67;;;10.63;;
8100;SDS011;4093;53.470;9.832;2023-10-31T06:14:27;14.13;;;9.00;;
8100;SDS011;4093;53.470;9.832;2023-10-31T06:16:55;11.57;;;8.43;;
8100;SDS011;4093;53.470;9.832;2023-10-31T06:19:25;9.07;;;7.60;;
8100;SDS011;4093;53.470;9.832;2023-10-31T06:21:53;8.77;;;6.90;;
8100;SDS011;4093;53.470;9.832;2023-10-31T06:24:22;9.10;;;7.40;;
8100;SDS011;4093;53.470;9.832;2023-10-31T06:26:50;9.43;;;7.30;;
8100;SDS011;4093;53.470;9.832;2023-10-31T06:29:18;7.10;;;6.20;;
8100;SDS011;4093;53.470;9.832;2023-10-31T06:32:06;8.27;;;6.67;;
8100;SDS011;4093;53.470;9.832;2023-10-31T06:34:34;5.57;;;4.73;;
8100;SDS011;4093;53.470;9.832;2023-10-31T06:37:02;5.40;;;4.60;;
8100;SDS011;4093;53.470;9.832;2023-10-31T06:39:31;5.23;;;4.10;;
8100;SDS011;4093;53.470;9.832;2023-10-31T06:41:59;3.83;;;3.43;;
8100;SDS011;4093;53.470;9.832;2023-10-31T06:44:27;3.40;;;3.10;;
8100;SDS011;4093;53.470;9.832;2023-10-31T06:46:54;3.53;;;2.93;;
8100;SDS011;4093;53.470;9.832;2023-10-31T06:49:22;2.90;;;2.70;;
8100;SDS011;4093;53.470;9.832;2023-10-31T06:51:50;3.00;;;2.70;;
8100;SDS011;4093;53.470;9.832;2023-10-31T06:54:18;3.90;;;2.93;;
8100;SDS011;4093;53.470;9.832;2023-10-31T06:56:47;4.23;;;3.67;;
8100;SDS011;4093;53.470;9.832;2023-10-31T06:59:15;7.77;;;6.60;;
8100;SDS011;4093;53.470;9.832;2023-10-31T07:01:43;12.20;;;9.57;;
8100;SDS011;4093;53.470;9.832;2023-10-31T07:04:13;18.03;;;13.70;;
8100;SDS011;4093;53.470;9.832;2023-10-31T07:06:41;18.53;;;14.60;;
8100;SDS011;4093;53.470;9.832;2023-10-31T07:09:08;23.83;;;17.03;;
8100;SDS011;4093;53.470;9.832;2023-10-31T07:11:36;22.60;;;17.00;;
8100;SDS011;4093;53.470;9.832;2023-10-31T07:14:05;24.07;;;17.27;;
8100;SDS011;4093;53.470;9.832;2023-10-31T07:16:33;22.10;;;16.47;;
8100;SDS011;4093;53.470;9.832;2023-10-31T07:19:01;22.03;;;17.17;;
8100;SDS011;4093;53.470;9.832;2023-10-31T07:21:29;20.73;;;16.27;;
8100;SDS011;4093;53.470;9.832;2023-10-31T07:23:57;18.33;;;14.93;;
8100;SDS011;4093;53.470;9.832;2023-10-31T07:26:24;25.00;;;15.10;;
8100;SDS011;4093;53.470;9.832;2023-10-31T07:28:53;14.73;;;11.87;;
8100;SDS011;4093;53.470;9.832;2023-10-31T07:31:23;10.60;;;9.33;;
8100;SDS011;4093;53.470;9.832;2023-10-31T07:33:51;9.50;;;8.03;;
8100;SDS011;4093;53.470;9.832;2023-10-31T07:36:19;7.37;;;6.40;;
8100;SDS011;4093;53.470;9.832;2023-10-31T07:38:47;6.63;;;5.60;;
8100;SDS011;4093;53.470;9.832;2023-10-31T07:41:15;5.03;;;4.40;;
8100;SDS011;4093;53.470;9.832;2023-10-31T07:43:43;3.93;;;3.50;;
8100;SDS011;4093;53.470;9.832;2023-10-31T07:46:10;3.67;;;3.23;;
8100;SDS011;4093;53.470;9.832;2023-10-31T07:48:40;2.90;;;2.70;;
8100;SDS011;4093;53.470;9.832;2023-10-31T07:51:08;2.30;;;2.10;;
8100;SDS011;4093;53.470;9.832;2023-10-31T07:53:35;1.80;;;1.70;;
8100;SDS011;4093;53.470;9.832;2023-10-31T07:56:03;2.17;;;1.70;;
8100;SDS011;4093;53.470;9.832;2023-10-31T07:58:32;1.60;;;1.50;;
8100;SDS011;4093;53.470;9.832;2023-10-31T08:01:05;2.20;;;1.30;;
8100;SDS011;4093;53.470;9.832;2023-10-31T08:03:36;1.33;;;1.30;;
8100;SDS011;4093;53.470;9.832;2023-10-31T08:06:06;1.33;;;1.23;;
8100;SDS011;4093;53.470;9.832;2023-10-31T08:08:34;5.93;;;4.63;;
8100;SDS011;4093;53.470;9.832;2023-10-31T08:11:02;1.10;;;1.10;;
8100;SDS011;4093;53.470;9.832;2023-10-31T08:13:30;1.10;;;1.10;;
8100;SDS011;4093;53.470;9.832;2023-10-31T08:15:58;1.27;;;1.00;;
8100;SDS011;4093;53.470;9.832;2023-10-31T08:18:25;1.20;;;1.20;;
8100;SDS011;4093;53.470;9.832;2023-10-31T08:20:53;1.10;;;1.10;;
8100;SDS011;4093;53.470;9.832;2023-10-31T08:23:22;1.20;;;1.20;;
8100;SDS011;4093;53.470;9.832;2023-10-31T08:25:50;1.60;;;1.50;;
8100;SDS011;4093;53.470;9.832;2023-10-31T08:28:18;1.77;;;1.67;;
8100;SDS011;4093;53.470;9.832;2023-10-31T08:30:46;1.53;;;1.10;;
8100;SDS011;4093;53.470;9.832;2023-10-31T08:33:14;0.90;;;0.90;;
8100;SDS011;4093;53.470;9.832;2023-10-31T08:35:42;1.30;;;1.20;;
8100;SDS011;4093;53.470;9.832;2023-10-31T08:38:10;1.30;;;1.30;;
8100;SDS011;4093;53.470;9.832;2023-10-31T08:40:53;1.37;;;1.30;;
8100;SDS011;4093;53.470;9.832;2023-10-31T08:43:21;2.20;;;1.33;;
8100;SDS011;4093;53.470;9.832;2023-10-31T08:45:49;1.37;;;1.10;;
8100;SDS011;4093;53.470;9.832;2023-10-31T08:48:17;1.40;;;1.30;;
8100;SDS011;4093;53.470;9.832;2023-10-31T08:50:44;1.23;;;1.13;;
8100;SDS011;4093;53.470;9.832;2023-10-31T08:53:12;1.37;;;1.27;;
8100;SDS011;4093;53.470;9.832;2023-10-31T08:55:40;2.13;;;1.10;;
8100;SDS011;4093;53.470;9.832;2023-10-31T08:58:12;1.03;;;1.03;;
8100;SDS011;4093;53.470;9.832;2023-10-31T09:00:40;0.90;;;0.90;;
8100;SDS011;4093;53.470;9.832;2023-10-31T09:03:08;1.23;;;1.17;;
8100;SDS011;4093;53.470;9.832;2023-10-31T09:05:36;1.00;;;1.00;;
8100;SDS011;4093;53.470;9.832;2023-10-31T09:08:04;1.00;;;1.00;;
8100;SDS011;4093;53.470;9.832;2023-10-31T09:10:33;0.80;;;0.80;;
8100;SDS011;4093;53.470;9.832;2023-10-31T09:13:03;1.10;;;1.10;;
8100;SDS011;4093;53.470;9.832;2023-10-31T09:15:32;1.93;;;1.20;;
8100;SDS011;4093;53.470;9.832;2023-10-31T09:18:00;2.33;;;2.13;;
8100;SDS011;4093;53.470;9.832;2023-10-31T09:20:28;1.40;;;1.30;;
8100;SDS011;4093;53.470;9.832;2023-10-31T09:22:56;1.73;;;1.30;;
8100;SDS011;4093;53.470;9.832;2023-10-31T09:25:24;1.83;;;1.70;;
8100;SDS011;4093;53.470;9.832;2023-10-31T09:27:52;2.23;;;1.50;;
8100;SDS011;4093;53.470;9.832;2023-10-31T09:30:20;1.70;;;1.27;;
8100;SDS011;4093;53.470;9.832;2023-10-31T09:32:49;1.37;;;1.27;;
8100;SDS011;4093;53.470;9.832;2023-10-31T09:35:17;1.43;;;1.40;;
8100;SDS011;4093;53.470;9.832;2023-10-31T09:37:45;1.63;;;1.53;;
8100;SDS011;4093;53.470;9.832;2023-10-31T09:40:15;2.77;;;1.37;;
8100;SDS011;4093;53.470;9.832;2023-10-31T09:42:43;1.70;;;1.27;;
8100;SDS011;4093;53.470;9.832;2023-10-31T09:45:12;2.00;;;1.33;;
8100;SDS011;4093;53.470;9.832;2023-10-31T09:47:41;1.57;;;1.30;;
8100;SDS011;4093;53.470;9.832;2023-10-31T09:50:10;2.00;;;1.80;;
8100;SDS011;4093;53.470;9.832;2023-10-31T09:52:39;1.70;;;1.47;;
8100;SDS011;4093;53.470;9.832;2023-10-31T09:55:07;2.73;;;1.70;;
8100;SDS011;4093;53.470;9.832;2023-10-31T09:57:35;2.03;;;1.50;;
8100;SDS011;4093;53.470;9.832;2023-10-31T10:00:04;3.23;;;1.77;;
8100;SDS011;4093;53.470;9.832;2023-10-31T10:02:33;2.50;;;1.70;;
8100;SDS011;4093;53.470;9.832;2023-10-31T10:05:01;2.80;;;1.80;;
8100;SDS011;4093;53.470;9.832;2023-10-31T10:07:31;2.97;;;1.67;;
8100;SDS011;4093;53.470;9.832;2023-10-31T10:10:01;1.73;;;1.50;;
8100;SDS011;4093;53.470;9.832;2023-10-31T10:12:29;1.63;;;1.40;;
8100;SDS011;4093;53.470;9.832;2023-10-31T10:14:57;2.37;;;1.50;;
8100;SDS011;4093;53.470;9.832;2023-10-31T10:17:25;2.77;;;1.90;;
8100;SDS011;4093;53.470;9.832;2023-10-31T10:22:41;1.63;;;1.53;;
8100;SDS011;4093;53.470;9.832;2023-10-31T10:25:10;1.87;;;1.70;;
8100;SDS011;4093;53.470;9.832;2023-10-31T10:27:40;2.40;;;1.73;;
8100;SDS011;4093;53.470;9.832;2023-10-31T10:30:08;2.10;;;1.90;;
8100;SDS011;4093;53.470;9.832;2023-10-31T10:32:37;1.77;;;1.50;;
8100;SDS011;4093;53.470;9.832;2023-10-31T10:35:06;4.10;;;2.03;;
8100;SDS011;4093;53.470;9.832;2023-10-31T10:37:34;1.97;;;1.70;;
8100;SDS011;4093;53.470;9.832;2023-10-31T10:40:06;2.47;;;2.00;;
8100;SDS011;4093;53.470;9.832;2023-10-31T10:42:40;1.80;;;1.70;;
8100;SDS011;4093;53.470;9.832;2023-10-31T10:45:12;1.90;;;1.80;;
8100;SDS011;4093;53.470;9.832;2023-10-31T10:47:47;2.00;;;1.47;;
8100;SDS011;4093;53.470;9.832;2023-10-31T10:50:17;3.40;;;2.00;;
8100;SDS011;4093;53.470;9.832;2023-10-31T10:52:49;1.63;;;1.53;;
8100;SDS011;4093;53.470;9.832;2023-10-31T10:55:26;1.97;;;1.77;;
8100;SDS011;4093;53.470;9.832;2023-10-31T10:58:00;2.70;;;1.90;;
8100;SDS011;4093;53.470;9.832;2023-10-31T11:00:30;2.60;;;1.83;;
8100;SDS011;4093;53.470;9.832;2023-10-31T11:03:01;2.30;;;1.73;;
8100;SDS011;4093;53.470;9.832;2023-10-31T11:05:31;3.20;;;1.90;;
8100;SDS011;4093;53.470;9.832;2023-10-31T11:08:00;2.50;;;1.80;;
8100;SDS011;4093;53.470;9.832;2023-10-31T11:10:30;2.00;;;1.70;;
8100;SDS011;4093;53.470;9.832;2023-10-31T11:12:58;3.50;;;1.80;;
8100;SDS011;4093;53.470;9.832;2023-10-31T11:15:26;2.40;;;1.67;;
8100;SDS011;4093;53.470;9.832;2023-10-31T11:17:55;2.73;;;1.60;;
8100;SDS011;4093;53.470;9.832;2023-10-31T11:20:24;2.40;;;1.60;;
8100;SDS011;4093;53.470;9.832;2023-10-31T11:22:55;2.23;;;1.70;;
8100;SDS011;4093;53.470;9.832;2023-10-31T11:25:24;2.27;;;1.80;;
8100;SDS011;4093;53.470;9.832;2023-10-31T11:28:11;2.10;;;1.90;;
8100;SDS011;4093;53.470;9.832;2023-10-31T11:30:40;2.10;;;1.90;;
8100;SDS011;4093;53.470;9.832;2023-10-31T11:33:12;2.00;;;1.77;;
8100;SDS011;4093;53.470;9.832;2023-10-31T11:35:41;3.70;;;1.90;;
8100;SDS011;4093;53.470;9.832;2023-10-31T11:38:11;2.33;;;1.63;;
8100;SDS011;4093;53.470;9.832;2023-10-31T11:40:46;4.60;;;2.30;;
8100;SDS011;4093;53.470;9.832;2023-10-31T11:43:36;2.60;;;1.70;;
8100;SDS011;4093;53.470;9.832;2023-10-31T11:46:18;3.57;;;1.87;;
8100;SDS011;4093;53.470;9.832;2023-10-31T11:48:46;2.43;;;1.90;;
8100;SDS011;4093;53.470;9.832;2023-10-31T11:51:17;4.13;;;2.00;;
8100;SDS011;4093;53.470;9.832;2023-10-31T11:53:46;3.77;;;1.60;;
8100;SDS011;4093;53.470;9.832;2023-10-31T11:56:16;4.00;;;2.00;;
8100;SDS011;4093;53.470;9.832;2023-10-31T11:58:45;2.00;;;1.80;;
8100;SDS011;4093;53.470;9.832;2023-10-31T12:01:22;3.33;;;1.80;;
8100;SDS011;4093;53.470;9.832;2023-10-31T12:03:50;2.27;;;2.03;;
8100;SDS011;4093;53.470;9.832;2023-10-31T12:06:18;2.83;;;1.80;;
8100;SDS011;4093;53.470;9.832;2023-10-31T12:08:48;1.73;;;1.50;;
8100;SDS011;4093;53.470;9.832;2023-10-31T12:11:17;2.63;;;1.83;;
8100;SDS011;4093;53.470;9.832;2023-10-31T12:13:54;2.43;;;1.53;;
8100;SDS011;4093;53.470;9.832;2023-10-31T12:16:24;1.70;;;1.60;;
8100;SDS011;4093;53.470;9.832;2023-10-31T12:18:56;3.43;;;1.70;;
8100;SDS011;4093;53.470;9.832;2023-10-31T12:21:35;2.40;;;2.20;;
8100;SDS011;4093;53.470;9.832;2023-10-31T12:24:04;2.70;;;1.70;;
8100;SDS011;4093;53.470;9.832;2023-10-31T12:26:32;2.37;;;1.63;;
8100;SDS011;4093;53.470;9.832;2023-10-31T12:29:09;3.00;;;1.50;;
8100;SDS011;4093;53.470;9.832;2023-10-31T12:31:44;3.27;;;1.93;;
8100;SDS011;4093;53.470;9.832;2023-10-31T12:34:15;2.30;;;2.00;;
8100;SDS011;4093;53.470;9.832;2023-10-31T12:36:43;2.73;;;1.87;;
8100;SDS011;4093;53.470;9.832;2023-10-31T12:39:13;2.40;;;1.77;;
8100;SDS011;4093;53.470;9.832;2023-10-31T12:41:42;2.53;;;2.00;;
8100;SDS011;4093;53.470;9.832;2023-10-31T12:44:12;2.13;;;1.90;;
8100;SDS011;4093;53.470;9.832;2023-10-31T12:46:43;2.27;;;1.63;;
8100;SDS011;4093;53.470;9.832;2023-10-31T12:49:11;2.00;;;1.90;;
8100;SDS011;4093;53.470;9.832;2023-10-31T12:51:54;3.80;;;1.80;;
8100;SDS011;4093;53.470;9.832;2023-10-31T12:54:30;2.43;;;2.10;;
8100;SDS011;4093;53.470;9.832;2023-10-31T12:56:59;2.50;;;1.70;;
8100;SDS011;4093;53.470;9.832;2023-10-31T12:59:29;1.97;;;1.87;;
8100;SDS011;4093;53.470;9.832;2023-10-31T13:01:57;2.27;;;1.90;;
8100;SDS011;4093;53.470;9.832;2023-10-31T13:04:26;4.23;;;2.00;;
8100;SDS011;4093;53.470;9.832;2023-10-31T13:06:56;2.37;;;1.80;;
8100;SDS011;4093;53.470;9.832;2023-10-31T13:09:27;3.20;;;1.93;;
8100;SDS011;4093;53.470;9.832;2023-10-31T13:11:57;1.73;;;1.37;;
8100;SDS011;4093;53.470;9.832;2023-10-31T13:14:26;2.43;;;1.60;;
8100;SDS011;4093;53.470;9.832;2023-10-31T13:16:55;1.50;;;1.40;;
8100;SDS011;4093;53.470;9.832;2023-10-31T13:19:23;2.00;;;1.27;;
8100;SDS011;4093;53.470;9.832;2023-10-31T13:21:50;1.50;;;1.40;;
8100;SDS011;4093;53.470;9.832;2023-10-31T13:24:18;2.47;;;1.37;;
8100;SDS011;4093;53.470;9.832;2023-10-31T13:26:46;2.93;;;1.80;;
8100;SDS011;4093;53.470;9.832;2023-10-31T13:29:18;1.60;;;1.50;;
8100;SDS011;4093;53.470;9.832;2023-10-31T13:31:45;4.27;;;2.00;;
8100;SDS011;4093;53.470;9.832;2023-10-31T13:34:15;2.40;;;1.90;;
8100;SDS011;4093;53.470;9.832;2023-10-31T13:36:43;2.43;;;2.23;;
8100;SDS011;4093;53.470;9.832;2023-10-31T13:39:11;3.07;;;1.87;;
8100;SDS011;4093;53.470;9.832;2023-10-31T13:41:38;3.30;;;2.30;;
8100;SDS011;4093;53.470;9.832;2023-10-31T13:44:06;4.00;;;2.90;;
8100;SDS011;4093;53.470;9.832;2023-10-31T13:46:33;5.77;;;2.80;;
8100;SDS011;4093;53.470;9.832;2023-10-31T13:49:01;3.27;;;3.03;;
8100;SDS011;4093;53.470;9.832;2023-10-31T13:51:31;4.77;;;2.53;;
8100;SDS011;4093;53.470;9.832;2023-10-31T13:53:59;3.30;;;2.33;;
8100;SDS011;4093;53.470;9.832;2023-10-31T13:56:26;2.83;;;2.47;;
8100;SDS011;4093;53.470;9.832;2023-10-31T13:58:54;4.07;;;2.30;;
8100;SDS011;4093;53.470;9.832;2023-10-31T14:01:22;2.30;;;2.10;;
8100;SDS011;4093;53.470;9.832;2023-10-31T14:03:51;2.27;;;1.90;;
8100;SDS011;4093;53.470;9.832;2023-10-31T14:06:20;2.30;;;2.10;;
8100;SDS011;4093;53.470;9.832;2023-10-31T14:08:49;3.20;;;1.87;;
8100;SDS011;4093;53.470;9.832;2023-10-31T14:11:16;2.67;;;1.80;;
8100;SDS011;4093;53.470;9.832;2023-10-31T14:13:44;3.33;;;1.57;;
8100;SDS011;4093;53.470;9.832;2023-10-31T14:16:12;2.87;;;1.63;;
8100;SDS011;4093;53.470;9.832;2023-10-31T14:18:40;2.13;;;1.70;;
8100;SDS011;4093;53.470;9.832;2023-10-31T14:21:09;2.27;;;1.60;;
8100;SDS011;4093;53.470;9.832;2023-10-31T14:23:36;3.27;;;1.87;;
8100;SDS011;4093;53.470;9.832;2023-10-31T14:26:06;1.50;;;1.40;;
8100;SDS011;4093;53.470;9.832;2023-10-31T14:28:33;1.87;;;1.73;;
8100;SDS011;4093;53.470;9.832;2023-10-31T14:31:01;1.80;;;1.70;;
8100;SDS011;4093;53.470;9.832;2023-10-31T14:33:30;2.13;;;1.80;;
8100;SDS011;4093;53.470;9.832;2023-10-31T14:35:58;3.73;;;2.17;;
8100;SDS011;4093;53.470;9.832;2023-10-31T14:38:26;1.87;;;1.70;;
8100;SDS011;4093;53.470;9.832;2023-10-31T14:40:53;4.30;;;1.93;;
8100;SDS011;4093;53.470;9.832;2023-10-31T14:43:23;1.70;;;1.60;;
8100;SDS011;4093;53.470;9.832;2023-10-31T14:45:50;2.93;;;1.83;;
8100;SDS011;4093;53.470;9.832;2023-10-31T14:48:20;3.20;;;1.90;;
8100;SDS011;4093;53.470;9.832;2023-10-31T14:50:48;2.77;;;2.07;;
8100;SDS011;4093;53.470;9.832;2023-10-31T14:53:16;3.23;;;2.13;;
8100;SDS011;4093;53.470;9.832;2023-10-31T14:55:45;1.83;;;1.53;;
8100;SDS011;4093;53.470;9.832;2023-10-31T14:58:13;1.90;;;1.80;;
8100;SDS011;4093;53.470;9.832;2023-10-31T15:00:42;2.50;;;1.70;;
8100;SDS011;4093;53.470;9.832;2023-10-31T15:03:10;4.23;;;2.07;;
8100;SDS011;4093;53.470;9.832;2023-10-31T15:05:38;6.13;;;2.00;;
8100;SDS011;4093;53.470;9.832;2023-10-31T15:08:06;2.03;;;1.67;;
8100;SDS011;4093;53.470;9.832;2023-10-31T15:10:34;4.73;;;2.20;;
8100;SDS011;4093;53.470;9.832;2023-10-31T15:13:01;2.57;;;1.83;;
8100;SDS011;4093;53.470;9.832;2023-10-31T15:15:32;5.17;;;2.03;;
8100;SDS011;4093;53.470;9.832;2023-10-31T15:18:01;2.90;;;1.50;;
8100;SDS011;4093;53.470;9.832;2023-10-31T15:20:29;3.30;;;1.90;;
8100;SDS011;4093;53.470;9.832;2023-10-31T15:22:57;2.07;;;1.87;;